Time;durP1;ratioP1;P1;durP2;ratioP2;P2;SDS_P1;SDS_P2;PMS_P1;PMS_P2;Temp;Humidity;BMP_temperature;BMP_pressure;BME280_temperature;BME280_humidity;BME280_pressure;Samples;Min_cycle;Max_cycle;Signal;HPM_P1;HPM_P2
2021/10/09 00:01:58;;;;;;;36.10;27.83;;;;;;;;;;5045902;28;20260;-72
2021/10/09 00:04:24;;;;;;;38.37;28.17;;;;;;;;;;5042874;28;20165;-72
2021/10/09 00:06:50;;;;;;;39.03;29.47;;;;;;;;;;5048515;28;20243;-72
2021/10/09 00:09:15;;;;;;;38.80;30.00;;;;;;;;;;5040111;28;20182;-72
2021/10/09 00:11:41;;;;;;;39.90;28.97;;;;;;;;;;5037575;28;20603;-72
2021/10/09 00:14:07;;;;;;;38.57;29.70;;;;;;;;;;5040394;28;20197;-72
2021/10/09 00:16:33;;;;;;;38.03;29.13;;;;;;;;;;5039503;28;20242;-72
2021/10/09 00:18:58;;;;;;;39.07;29.37;;;;;;;;;;5045924;28;20170;-72
2021/10/09 00:21:23;;;;;;;40.93;31.43;;;;;;;;;;5041593;28;20169;-72
2021/10/09 00:23:49;;;;;;;45.23;32.30;;;;;;;;;;5045173;28;20685;-72
2021/10/09 00:26:15;;;;;;;43.20;31.13;;;;;;;;;;5032810;28;20283;-72
2021/10/09 00:28:40;;;;;;;45.83;33.03;;;;;;;;;;5047654;28;20649;-72
2021/10/09 00:31:05;;;;;;;45.30;32.40;;;;;;;;;;5043912;28;20173;-72
2021/10/09 00:33:30;;;;;;;40.23;33.47;;;;;;;;;;5046631;28;20188;-72
2021/10/09 00:35:55;;;;;;;48.53;34.00;;;;;;;;;;5042257;28;20210;-72
2021/10/09 00:38:21;;;;;;;50.60;35.53;;;;;;;;;;5038256;28;20186;-72
2021/10/09 00:40:46;;;;;;;57.53;35.30;;;;;;;;;;5045747;28;20173;-72
2021/10/09 00:43:11;;;;;;;48.77;34.40;;;;;;;;;;5040762;28;20185;-72
2021/10/09 00:45:36;;;;;;;49.40;32.63;;;;;;;;;;5045684;28;20597;-72
2021/10/09 00:48:02;;;;;;;47.50;32.53;;;;;;;;;;5048473;28;20177;-72
2021/10/09 00:50:27;;;;;;;42.83;32.37;;;;;;;;;;5040302;28;20635;-72
2021/10/09 00:52:54;;;;;;;46.20;33.83;;;;;;;;;;5040932;28;20232;-73
2021/10/09 00:55:19;;;;;;;52.97;36.27;;;;;;;;;;5041666;28;20193;-73
2021/10/09 00:57:45;;;;;;;53.23;36.73;;;;;;;;;;5041278;28;20217;-72
2021/10/09 01:00:11;;;;;;;56.03;39.07;;;;;;;;;;5037025;28;20240;-72
2021/10/09 01:02:37;;;;;;;49.13;35.10;;;;;;;;;;5047765;28;20166;-73
2021/10/09 01:05:03;;;;;;;53.67;35.20;;;;;;;;;;5044409;28;20171;-72
2021/10/09 01:07:28;;;;;;;48.00;35.17;;;;;;;;;;5050608;28;20301;-72
2021/10/09 01:09:53;;;;;;;54.87;38.37;;;;;;;;;;5049495;28;20185;-73
2021/10/09 01:12:19;;;;;;;50.83;36.93;;;;;;;;;;5052002;28;20662;-72
2021/10/09 01:14:44;;;;;;;55.20;38.43;;;;;;;;;;5042069;28;20206;-72
2021/10/09 01:17:10;;;;;;;61.13;38.10;;;;;;;;;;5048875;28;20189;-72
2021/10/09 01:19:36;;;;;;;56.70;38.23;;;;;;;;;;5045880;28;20684;-73
2021/10/09 01:22:01;;;;;;;56.27;37.60;;;;;;;;;;5051713;28;20174;-73
2021/10/09 01:24:26;;;;;;;57.37;37.83;;;;;;;;;;5034498;28;20258;-73
2021/10/09 01:26:51;;;;;;;58.57;38.20;;;;;;;;;;5045922;28;20243;-73
2021/10/09 01:29:17;;;;;;;60.80;39.23;;;;;;;;;;5042792;28;20182;-73
2021/10/09 01:31:42;;;;;;;59.37;38.83;;;;;;;;;;5052443;28;20169;-73
2021/10/09 01:34:07;;;;;;;63.13;40.13;;;;;;;;;;5042693;28;20170;-72
2021/10/09 01:36:33;;;;;;;54.00;37.40;;;;;;;;;;5046200;28;20205;-72
2021/10/09 01:38:59;;;;;;;55.90;38.53;;;;;;;;;;5043467;28;20659;-72
2021/10/09 01:41:24;;;;;;;54.43;37.90;;;;;;;;;;5047678;28;20178;-72
2021/10/09 01:43:50;;;;;;;54.47;37.10;;;;;;;;;;5044669;28;20557;-72
2021/10/09 01:46:15;;;;;;;55.33;39.17;;;;;;;;;;5055955;22;20224;-75
2021/10/09 01:48:41;;;;;;;58.07;38.83;;;;;;;;;;5067752;28;20556;-74
2021/10/09 01:51:07;;;;;;;62.13;39.60;;;;;;;;;;5071297;28;20176;-75
2021/10/09 01:53:33;;;;;;;67.83;41.80;;;;;;;;;;5073737;28;20199;-75
2021/10/09 01:55:58;;;;;;;62.83;41.60;;;;;;;;;;5062902;28;20649;-74
2021/10/09 01:58:23;;;;;;;67.80;41.60;;;;;;;;;;5071703;28;20253;-74
2021/10/09 02:00:48;;;;;;;60.60;40.23;;;;;;;;;;5070453;28;20327;-74
2021/10/09 02:03:17;;;;;;;66.83;41.67;;;;;;;;;;5065987;28;20233;-74
2021/10/09 02:05:42;;;;;;;59.50;39.17;;;;;;;;;;5072660;28;20279;-74
2021/10/09 02:08:07;;;;;;;67.23;42.20;;;;;;;;;;5073117;28;20713;-74
2021/10/09 02:10:34;;;;;;;67.13;40.83;;;;;;;;;;5072229;28;20173;-74
2021/10/09 02:13:03;;;;;;;64.07;41.43;;;;;;;;;;5071933;28;20165;-73
2021/10/09 02:15:46;;;;;;;62.93;40.53;;;;;;;;;;5072837;28;20254;-73
2021/10/09 02:26:23;;;;;;;67.77;41.80;;;;;;;;;;5073151;28;20246;-74
2021/10/09 02:28:48;;;;;;;65.70;41.87;;;;;;;;;;5072569;28;20594;-74
2021/10/09 02:31:14;;;;;;;65.10;41.33;;;;;;;;;;5070961;28;20223;-74
2021/10/09 02:33:39;;;;;;;70.03;43.37;;;;;;;;;;5070901;28;20702;-74
2021/10/09 02:36:04;;;;;;;66.40;42.70;;;;;;;;;;5068006;28;20208;-74
2021/10/09 02:38:29;;;;;;;64.40;41.13;;;;;;;;;;5063908;28;20180;-74
2021/10/09 02:40:54;;;;;;;61.73;39.47;;;;;;;;;;5069902;28;20275;-73
2021/10/09 02:43:20;;;;;;;64.07;41.97;;;;;;;;;;5070185;28;20252;-74
2021/10/09 02:45:45;;;;;;;64.90;40.80;;;;;;;;;;5051996;28;20210;-74
2021/10/09 02:48:10;;;;;;;70.60;42.57;;;;;;;;;;5071080;28;20685;-75
2021/10/09 02:50:36;;;;;;;72.97;42.60;;;;;;;;;;5070666;28;20177;-74
2021/10/09 02:53:01;;;;;;;62.40;40.47;;;;;;;;;;5046817;28;20248;-74
2021/10/09 02:55:27;;;;;;;63.53;40.43;;;;;;;;;;5072107;28;20205;-74
2021/10/09 02:57:52;;;;;;;69.50;42.83;;;;;;;;;;5068840;28;20204;-75
2021/10/09 03:00:18;;;;;;;66.47;42.70;;;;;;;;;;5070518;28;20176;-75
2021/10/09 03:02:43;;;;;;;70.13;40.90;;;;;;;;;;5067648;28;20257;-74
2021/10/09 03:05:10;;;;;;;64.30;42.13;;;;;;;;;;5067469;28;20264;-74
2021/10/09 03:07:35;;;;;;;77.07;43.27;;;;;;;;;;5069853;28;20232;-74
2021/10/09 03:10:00;;;;;;;66.67;40.90;;;;;;;;;;5071227;28;20216;-74
2021/10/09 03:12:26;;;;;;;74.27;43.97;;;;;;;;;;5067043;28;20185;-75
2021/10/09 03:14:51;;;;;;;66.67;44.03;;;;;;;;;;5065943;28;20193;-74
2021/10/09 03:17:16;;;;;;;64.70;40.90;;;;;;;;;;5066580;28;20197;-74
2021/10/09 03:19:41;;;;;;;66.67;42.27;;;;;;;;;;5067314;28;20264;-75
2021/10/09 03:22:07;;;;;;;65.97;42.47;;;;;;;;;;5069772;28;20179;-75
2021/10/09 03:24:32;;;;;;;73.13;43.63;;;;;;;;;;5066384;28;20177;-74
2021/10/09 03:26:57;;;;;;;70.43;41.20;;;;;;;;;;5071080;28;20200;-74
2021/10/09 03:29:22;;;;;;;74.17;44.00;;;;;;;;;;5071606;28;20630;-74
2021/10/09 03:31:48;;;;;;;68.93;43.40;;;;;;;;;;5071561;28;20181;-74
2021/10/09 03:34:13;;;;;;;71.77;44.03;;;;;;;;;;5071005;28;20578;-75
2021/10/09 03:36:38;;;;;;;78.00;44.00;;;;;;;;;;5071200;28;20196;-74
2021/10/09 03:39:08;;;;;;;77.90;43.03;;;;;;;;;;5066699;28;20263;-75
2021/10/09 03:41:34;;;;;;;70.60;42.17;;;;;;;;;;5053301;28;20180;-74
2021/10/09 03:43:59;;;;;;;67.50;40.97;;;;;;;;;;5066074;28;20174;-77
2021/10/09 03:46:27;;;;;;;67.27;40.13;;;;;;;;;;5053330;28;20195;-75
2021/10/09 03:54:04;;;;;;;69.40;41.70;;;;;;;;;;5069213;28;20176;-75
2021/10/09 03:56:29;;;;;;;68.07;41.23;;;;;;;;;;5055276;28;20193;-74
2021/10/09 03:58:54;;;;;;;73.03;41.87;;;;;;;;;;5070870;28;20260;-76
2021/10/09 04:01:19;;;;;;;71.43;40.97;;;;;;;;;;5065730;28;20177;-75
2021/10/09 04:03:44;;;;;;;71.37;42.20;;;;;;;;;;5069227;28;20165;-74
2021/10/09 04:06:10;;;;;;;76.90;42.57;;;;;;;;;;5070776;28;20185;-74
2021/10/09 04:08:35;;;;;;;78.97;43.23;;;;;;;;;;5050811;28;20699;-74
2021/10/09 04:11:00;;;;;;;72.43;43.37;;;;;;;;;;5069529;28;20215;-74
2021/10/09 04:13:25;;;;;;;75.30;45.10;;;;;;;;;;5070712;28;20208;-74
2021/10/09 04:15:50;;;;;;;72.83;44.23;;;;;;;;;;5069412;28;20688;-74
2021/10/09 04:18:16;;;;;;;73.20;42.57;;;;;;;;;;5069550;28;20254;-74
2021/10/09 04:20:41;;;;;;;69.97;40.87;;;;;;;;;;5067805;28;20177;-73
2021/10/09 04:23:07;;;;;;;68.20;40.57;;;;;;;;;;5069341;28;20173;-74
2021/10/09 04:25:32;;;;;;;71.23;42.03;;;;;;;;;;5052163;28;20173;-75
2021/10/09 04:27:57;;;;;;;71.30;42.17;;;;;;;;;;5068171;28;20192;-74
2021/10/09 04:30:22;;;;;;;70.37;41.40;;;;;;;;;;5067500;28;20177;-75
2021/10/09 04:32:47;;;;;;;73.87;42.60;;;;;;;;;;5068793;28;20187;-75
2021/10/09 04:35:12;;;;;;;73.50;40.83;;;;;;;;;;5070402;28;20205;-74
2021/10/09 04:37:38;;;;;;;80.77;43.10;;;;;;;;;;5051682;28;20196;-74
2021/10/09 04:40:03;;;;;;;78.87;44.03;;;;;;;;;;5072980;28;20176;-74
2021/10/09 04:42:29;;;;;;;78.07;43.60;;;;;;;;;;5056455;28;20178;-75
2021/10/09 04:44:54;;;;;;;67.97;40.20;;;;;;;;;;5071802;28;20606;-74
2021/10/09 04:47:19;;;;;;;73.57;43.07;;;;;;;;;;5073238;28;20645;-76
2021/10/09 04:49:44;;;;;;;72.17;40.83;;;;;;;;;;5069702;28;20188;-73
2021/10/09 04:52:10;;;;;;;78.27;44.77;;;;;;;;;;5074778;28;20205;-75
2021/10/09 04:54:35;;;;;;;79.13;43.30;;;;;;;;;;5047306;28;20329;-74
2021/10/09 04:57:00;;;;;;;78.10;43.47;;;;;;;;;;5050200;28;20192;-75
2021/10/09 04:59:25;;;;;;;85.10;45.27;;;;;;;;;;5074441;28;20185;-74
2021/10/09 05:01:50;;;;;;;79.60;42.17;;;;;;;;;;5070659;28;20165;-76
2021/10/09 05:04:15;;;;;;;87.17;44.47;;;;;;;;;;5066375;28;20614;-74
2021/10/09 05:06:41;;;;;;;86.70;45.37;;;;;;;;;;5054377;28;20201;-74
2021/10/09 05:09:07;;;;;;;83.80;44.90;;;;;;;;;;5070541;28;20174;-74
2021/10/09 05:11:32;;;;;;;82.17;44.50;;;;;;;;;;5074174;28;20206;-74
2021/10/09 05:13:57;;;;;;;87.13;46.03;;;;;;;;;;5074060;28;20169;-75
2021/10/09 05:16:23;;;;;;;85.53;45.83;;;;;;;;;;5065153;28;20246;-74
2021/10/09 05:18:48;;;;;;;88.10;46.47;;;;;;;;;;5049428;28;20166;-73
2021/10/09 05:21:13;;;;;;;78.50;42.97;;;;;;;;;;5044335;28;20197;-74
2021/10/09 05:23:38;;;;;;;81.20;43.57;;;;;;;;;;5070812;28;20165;-74
2021/10/09 05:26:04;;;;;;;80.80;43.17;;;;;;;;;;5071732;28;20192;-74
2021/10/09 05:29:03;;;;;;;86.17;45.03;;;;;;;;;;5069249;28;20185;-74
2021/10/09 05:33:50;;;;;;;79.50;42.43;;;;;;;;;;5070572;28;20564;-75
2021/10/09 05:36:15;;;;;;;81.83;43.80;;;;;;;;;;5068689;28;20205;-75
2021/10/09 05:38:40;;;;;;;83.43;42.20;;;;;;;;;;5072676;28;20185;-74
2021/10/09 05:41:06;;;;;;;87.50;43.30;;;;;;;;;;5054292;28;20221;-74
2021/10/09 05:43:31;;;;;;;89.27;44.87;;;;;;;;;;5073318;28;20552;-74
2021/10/09 05:45:57;;;;;;;94.93;45.80;;;;;;;;;;5054667;28;20185;-75
2021/10/09 05:48:22;;;;;;;83.67;43.20;;;;;;;;;;5071753;28;20227;-75
2021/10/09 05:53:57;;;;;;;97.73;47.67;;;;;;;;;;5077278;28;20219;-74
2021/10/09 05:56:35;;;;;;;106.73;50.53;;;;;;;;;;5078190;28;20729;-74
2021/10/09 07:01:04;;;;;;;86.37;47.10;;;;;;;;;;5055792;28;20231;-75
2021/10/09 07:03:29;;;;;;;83.20;47.23;;;;;;;;;;5060777;28;20174;-75
2021/10/09 07:05:54;;;;;;;80.57;46.37;;;;;;;;;;5060789;28;20655;-75
2021/10/09 07:08:21;;;;;;;83.17;47.33;;;;;;;;;;5067812;28;20192;-75
2021/10/09 07:10:48;;;;;;;77.77;47.23;;;;;;;;;;5067098;28;20186;-74
2021/10/09 07:13:14;;;;;;;74.80;45.23;;;;;;;;;;5070718;28;20184;-74
2021/10/09 07:15:39;;;;;;;76.10;46.17;;;;;;;;;;5048368;28;20204;-74
2021/10/09 07:18:05;;;;;;;73.50;42.70;;;;;;;;;;5066830;28;20516;-75
2021/10/09 07:20:31;;;;;;;68.27;43.73;;;;;;;;;;5065983;28;20677;-75
2021/10/09 07:22:56;;;;;;;66.70;42.43;;;;;;;;;;5066943;28;20173;-75
2021/10/09 07:25:22;;;;;;;71.87;42.43;;;;;;;;;;5067998;28;20606;-76
2021/10/09 07:27:47;;;;;;;60.83;39.33;;;;;;;;;;5068584;28;20203;-74
2021/10/09 07:30:13;;;;;;;60.80;40.07;;;;;;;;;;5062153;28;20177;-74
2021/10/09 07:32:38;;;;;;;53.83;38.47;;;;;;;;;;5066998;28;20212;-75
2021/10/09 07:35:04;;;;;;;55.57;39.03;;;;;;;;;;5068257;28;20258;-75
2021/10/09 07:37:29;;;;;;;50.43;35.37;;;;;;;;;;5068943;28;20278;-75
2021/10/09 07:39:54;;;;;;;51.60;34.27;;;;;;;;;;5071278;28;20161;-73
2021/10/09 07:42:19;;;;;;;47.33;34.87;;;;;;;;;;5068942;28;20211;-73
2021/10/09 07:44:46;;;;;;;43.30;32.13;;;;;;;;;;5069965;28;20284;-75
2021/10/09 07:47:13;;;;;;;46.53;33.30;;;;;;;;;;5074828;23;20308;-76
2021/10/09 07:49:39;;;;;;;42.67;31.20;;;;;;;;;;5058821;28;20248;-73
2021/10/09 07:52:04;;;;;;;42.80;32.67;;;;;;;;;;5067010;28;20212;-75
2021/10/09 07:54:29;;;;;;;44.87;32.07;;;;;;;;;;5057228;28;20667;-73
2021/10/09 07:56:55;;;;;;;41.40;30.87;;;;;;;;;;5061750;28;20184;-73
2021/10/09 07:59:20;;;;;;;42.50;32.53;;;;;;;;;;5047307;28;20225;-74
2021/10/09 08:01:45;;;;;;;40.77;30.13;;;;;;;;;;5047660;28;20181;-74
2021/10/09 08:04:14;;;;;;;39.83;29.77;;;;;;;;;;5045203;28;20202;-75
2021/10/09 08:06:39;;;;;;;45.93;30.33;;;;;;;;;;5049795;28;20185;-75
2021/10/09 08:09:04;;;;;;;41.50;30.27;;;;;;;;;;5039056;28;20186;-74
2021/10/09 08:11:30;;;;;;;43.93;30.23;;;;;;;;;;5049726;28;20658;-72
2021/10/09 08:13:55;;;;;;;35.92;27.95;;;;;;;;;;5047745;28;20241;-72
2021/10/09 08:16:20;;;;;;;35.90;28.70;;;;;;;;;;5044018;28;20269;-73
2021/10/09 08:18:45;;;;;;;37.58;28.52;;;;;;;;;;5045753;28;20197;-73
2021/10/09 08:21:10;;;;;;;35.20;28.42;;;;;;;;;;5046689;28;20178;-73
2021/10/09 08:23:52;;;;;;;35.30;28.00;;;;;;;;;;5053070;28;20517;-74
2021/10/09 08:39:38;;;;;;;33.63;26.73;;;;;;;;;;5042445;28;20174;-73
2021/10/09 08:42:03;;;;;;;30.77;25.13;;;;;;;;;;5047083;28;20572;-74
2021/10/09 08:44:28;;;;;;;34.25;25.95;;;;;;;;;;5046823;28;20256;-74
2021/10/09 08:46:53;;;;;;;31.67;26.52;;;;;;;;;;5038837;28;20643;-74
2021/10/09 08:49:19;;;;;;;37.17;26.40;;;;;;;;;;5030580;28;20245;-74
2021/10/09 08:51:44;;;;;;;35.13;25.60;;;;;;;;;;5033708;28;20202;-75
2021/10/09 08:54:10;;;;;;;28.48;24.08;;;;;;;;;;5043759;28;20177;-73
2021/10/09 08:56:37;;;;;;;32.65;25.95;;;;;;;;;;5023210;28;20517;-73
2021/10/09 08:59:10;;;;;;;34.55;25.10;;;;;;;;;;5045198;28;20683;-73
2021/10/09 09:01:46;;;;;;;29.10;24.08;;;;;;;;;;5046520;28;20706;-75
2021/10/09 09:41:20;;;;;;;26.50;21.58;;;;;;;;;;5045430;28;20176;-72
2021/10/09 09:43:45;;;;;;;26.13;21.67;;;;;;;;;;5051613;28;20169;-72
2021/10/09 09:46:14;;;;;;;24.80;21.17;;;;;;;;;;5049687;28;20192;-72
2021/10/09 09:48:41;;;;;;;28.30;21.67;;;;;;;;;;5051295;28;20212;-73
2021/10/09 09:51:08;;;;;;;28.25;22.55;;;;;;;;;;5052522;28;20220;-73
2021/10/09 09:53:34;;;;;;;25.25;22.30;;;;;;;;;;5051551;28;20213;-72
2021/10/09 09:56:00;;;;;;;29.65;22.15;;;;;;;;;;5047516;28;20255;-72
2021/10/09 09:58:28;;;;;;;26.33;21.67;;;;;;;;;;5047823;28;20198;-72
2021/10/09 10:00:56;;;;;;;30.17;21.80;;;;;;;;;;5047290;28;20174;-73
2021/10/09 10:03:24;;;;;;;26.45;22.50;;;;;;;;;;5046462;28;20201;-73
2021/10/09 10:05:50;;;;;;;32.50;23.45;;;;;;;;;;5044228;28;20189;-73
2021/10/09 10:08:15;;;;;;;25.92;22.20;;;;;;;;;;5049582;28;20698;-73
2021/10/09 10:10:41;;;;;;;25.60;21.70;;;;;;;;;;5044194;28;20181;-72
2021/10/09 10:13:06;;;;;;;25.13;21.60;;;;;;;;;;5030733;28;20273;-73
2021/10/09 10:15:32;;;;;;;28.17;22.17;;;;;;;;;;5047556;28;20701;-73
2021/10/09 10:17:57;;;;;;;26.27;22.20;;;;;;;;;;5028580;28;20222;-74
2021/10/09 10:20:24;;;;;;;27.95;22.65;;;;;;;;;;5040323;28;20188;-73
2021/10/09 10:22:54;;;;;;;28.80;23.90;;;;;;;;;;5045781;28;20161;-74
2021/10/09 10:25:29;;;;;;;28.27;24.52;;;;;;;;;;5048843;28;20174;-76
2021/10/09 10:27:57;;;;;;;24.02;21.42;;;;;;;;;;5048254;28;20201;-77
2021/10/09 10:30:24;;;;;;;26.65;23.05;;;;;;;;;;5031712;28;20283;-76
2021/10/09 10:32:55;;;;;;;27.48;22.67;;;;;;;;;;5047216;28;20650;-78
2021/10/09 10:35:29;;;;;;;28.23;22.77;;;;;;;;;;5044716;28;20194;-78
2021/10/09 10:38:03;;;;;;;24.52;21.52;;;;;;;;;;5033879;28;20200;-76
2021/10/09 10:40:49;;;;;;;27.25;22.50;;;;;;;;;;5048632;28;20170;-78
2021/10/09 10:43:31;;;;;;;26.95;22.25;;;;;;;;;;5031729;28;20557;-75
2021/10/09 10:45:56;;;;;;;27.10;21.50;;;;;;;;;;5044595;28;20186;-77
2021/10/09 10:48:41;;;;;;;27.40;22.15;;;;;;;;;;5025257;28;20275;-77
2021/10/09 10:51:13;;;;;;;27.73;21.70;;;;;;;;;;5046763;28;20217;-75
2021/10/09 10:53:50;;;;;;;26.02;22.60;;;;;;;;;;5046953;28;20182;-77
2021/10/09 10:56:15;;;;;;;26.95;21.33;;;;;;;;;;5047595;28;20745;-76
2021/10/09 10:58:41;;;;;;;26.08;21.27;;;;;;;;;;5052162;28;20288;-77
2021/10/09 11:01:19;;;;;;;26.00;21.95;;;;;;;;;;5051431;28;20176;-76
2021/10/09 11:03:52;;;;;;;25.17;21.05;;;;;;;;;;5038239;28;20194;-77
2021/10/09 11:06:18;;;;;;;24.02;20.25;;;;;;;;;;5044321;28;20201;-76
2021/10/09 11:08:44;;;;;;;27.33;21.65;;;;;;;;;;5027926;28;20553;-75
2021/10/09 11:11:10;;;;;;;25.80;20.95;;;;;;;;;;5046699;28;20272;-76
2021/10/09 11:13:35;;;;;;;25.23;21.55;;;;;;;;;;5027600;28;20179;-75
2021/10/09 11:16:03;;;;;;;22.92;20.40;;;;;;;;;;5046428;28;20207;-77
2021/10/09 11:18:28;;;;;;;29.33;21.85;;;;;;;;;;5029137;28;20202;-75
2021/10/09 11:20:57;;;;;;;28.50;20.83;;;;;;;;;;5039733;28;20629;-75
2021/10/09 11:23:23;;;;;;;22.27;19.23;;;;;;;;;;5041470;28;20414;-75
2021/10/09 11:25:49;;;;;;;25.40;20.45;;;;;;;;;;5048923;28;20198;-75
2021/10/09 11:28:18;;;;;;;23.90;20.80;;;;;;;;;;5040339;28;20208;-75
2021/10/09 11:30:44;;;;;;;28.10;20.42;;;;;;;;;;5028265;28;20178;-75
2021/10/09 11:33:09;;;;;;;31.65;20.35;;;;;;;;;;5026175;28;20181;-74
2021/10/09 11:35:35;;;;;;;24.03;20.30;;;;;;;;;;5045526;28;20202;-75
2021/10/09 11:38:03;;;;;;;26.83;21.08;;;;;;;;;;5049776;28;20513;-75
2021/10/09 11:40:39;;;;;;;25.20;18.92;;;;;;;;;;5044345;28;20177;-75
2021/10/09 11:43:13;;;;;;;23.13;19.77;;;;;;;;;;5047927;28;20269;-75
2021/10/09 11:45:51;;;;;;;24.30;17.60;;;;;;;;;;5042886;28;20173;-75
2021/10/09 11:54:05;;;;;;;25.35;19.95;;;;;;;;;;5039978;28;20197;-75
2021/10/09 11:56:31;;;;;;;25.42;18.95;;;;;;;;;;5044543;28;20715;-75
2021/10/09 11:59:02;;;;;;;21.33;17.88;;;;;;;;;;5046970;28;20197;-76
2021/10/09 12:01:36;;;;;;;24.05;18.67;;;;;;;;;;5031313;28;20181;-76
2021/10/09 12:04:23;;;;;;;22.30;18.33;;;;;;;;;;5032437;28;20177;-75
2021/10/09 12:06:49;;;;;;;24.88;19.13;;;;;;;;;;5045785;28;20336;-76
2021/10/09 12:09:16;;;;;;;24.73;19.92;;;;;;;;;;5045333;28;20251;-75
2021/10/09 12:11:42;;;;;;;21.45;18.20;;;;;;;;;;5049605;28;20178;-75
2021/10/09 12:14:11;;;;;;;24.00;19.10;;;;;;;;;;5026797;28;20189;-75
2021/10/09 12:16:38;;;;;;;23.92;17.63;;;;;;;;;;5049318;28;20232;-76
2021/10/09 12:19:03;;;;;;;26.17;19.38;;;;;;;;;;5041798;28;20206;-74
2021/10/09 12:21:31;;;;;;;22.63;18.90;;;;;;;;;;5039156;28;20311;-76
2021/10/09 12:23:57;;;;;;;22.90;18.67;;;;;;;;;;5024594;28;20172;-76
2021/10/09 12:26:23;;;;;;;25.00;19.02;;;;;;;;;;5025531;28;20181;-76
2021/10/09 12:29:07;;;;;;;22.73;18.85;;;;;;;;;;5044667;28;20340;-76
2021/10/09 12:31:33;;;;;;;23.02;17.75;;;;;;;;;;5046777;28;20192;-76
2021/10/09 12:33:59;;;;;;;26.73;19.08;;;;;;;;;;5046881;28;20182;-77
2021/10/09 12:36:34;;;;;;;28.15;19.90;;;;;;;;;;5049351;28;20258;-75
2021/10/09 12:39:18;;;;;;;22.88;18.00;;;;;;;;;;5044885;28;20185;-77
2021/10/09 12:41:43;;;;;;;23.25;18.13;;;;;;;;;;5046150;28;20182;-75
2021/10/09 12:44:08;;;;;;;23.33;18.00;;;;;;;;;;5035663;28;20170;-75
2021/10/09 12:46:33;;;;;;;18.70;16.70;;;;;;;;;;5027249;28;20200;-75
2021/10/09 12:48:58;;;;;;;20.93;18.37;;;;;;;;;;5040970;28;20980;-74
2021/10/09 12:51:23;;;;;;;28.20;17.33;;;;;;;;;;5044164;28;20431;-72
2021/10/09 12:53:52;;;;;;;24.97;17.93;;;;;;;;;;5048966;28;20449;-75
2021/10/09 12:56:17;;;;;;;19.02;16.70;;;;;;;;;;5046067;28;20849;-76
2021/10/09 12:58:42;;;;;;;23.70;18.80;;;;;;;;;;5043584;28;20201;-73
2021/10/09 13:01:07;;;;;;;25.70;19.50;;;;;;;;;;5051549;28;20436;-72
2021/10/09 13:03:33;;;;;;;25.83;18.90;;;;;;;;;;5048529;28;20423;-73
2021/10/09 13:05:58;;;;;;;19.43;17.43;;;;;;;;;;5051659;28;20206;-73
2021/10/09 13:08:23;;;;;;;23.80;18.67;;;;;;;;;;5053791;28;20426;-73
2021/10/09 13:10:50;;;;;;;25.13;18.03;;;;;;;;;;5054705;28;20443;-73
2021/10/09 13:13:15;;;;;;;22.15;17.30;;;;;;;;;;5039461;28;20426;-73
2021/10/09 13:15:40;;;;;;;26.97;19.50;;;;;;;;;;5054507;28;20174;-73
2021/10/09 13:18:05;;;;;;;22.80;18.27;;;;;;;;;;5054226;28;20484;-73
2021/10/09 13:20:33;;;;;;;25.15;18.00;;;;;;;;;;5054025;28;20406;-72
2021/10/09 13:22:58;;;;;;;23.30;18.65;;;;;;;;;;5045614;28;20210;-73
2021/10/09 13:25:23;;;;;;;25.38;18.80;;;;;;;;;;5047904;28;20259;-72
2021/10/09 13:27:48;;;;;;;20.20;18.00;;;;;;;;;;5050139;28;20689;-73
2021/10/09 13:30:13;;;;;;;18.67;16.67;;;;;;;;;;5052249;28;20475;-72
2021/10/09 13:32:38;;;;;;;20.70;18.20;;;;;;;;;;5050540;28;21628;-73
2021/10/09 13:35:04;;;;;;;19.13;17.03;;;;;;;;;;5052396;28;20430;-73
2021/10/09 13:37:31;;;;;;;22.92;18.27;;;;;;;;;;5052172;28;20492;-73
2021/10/09 13:39:58;;;;;;;21.95;18.15;;;;;;;;;;5052310;28;20181;-72
2021/10/09 13:42:25;;;;;;;24.23;18.25;;;;;;;;;;5023579;28;20654;-73
2021/10/09 13:44:50;;;;;;;23.75;17.55;;;;;;;;;;5054523;28;20169;-72
2021/10/09 13:47:15;;;;;;;22.57;16.90;;;;;;;;;;5047846;28;20714;-72
2021/10/09 13:49:40;;;;;;;18.87;16.50;;;;;;;;;;5053836;28;20407;-70
2021/10/09 13:52:06;;;;;;;17.23;15.30;;;;;;;;;;5049481;28;20395;-70
2021/10/09 13:54:32;;;;;;;19.27;17.02;;;;;;;;;;5035655;28;20503;-69
2021/10/09 13:56:57;;;;;;;20.37;15.97;;;;;;;;;;5051453;28;20427;-69
2021/10/09 13:59:22;;;;;;;23.23;16.60;;;;;;;;;;5043924;28;20443;-69
2021/10/09 14:01:48;;;;;;;26.92;17.17;;;;;;;;;;5046180;28;20474;-70
2021/10/09 14:04:13;;;;;;;24.25;17.67;;;;;;;;;;5053270;28;20260;-70
2021/10/09 14:06:38;;;;;;;18.98;15.25;;;;;;;;;;5050000;28;20228;-70
2021/10/09 14:09:04;;;;;;;18.52;16.52;;;;;;;;;;5048658;28;20255;-70
2021/10/09 14:11:29;;;;;;;24.52;17.33;;;;;;;;;;5047825;28;20170;-69
2021/10/09 14:13:54;;;;;;;20.55;16.02;;;;;;;;;;5051925;28;20173;-74
2021/10/09 14:16:19;;;;;;;22.73;17.27;;;;;;;;;;5044961;28;20183;-74
2021/10/09 14:18:44;;;;;;;21.57;16.30;;;;;;;;;;5050556;28;20694;-74
2021/10/09 14:21:10;;;;;;;25.80;15.57;;;;;;;;;;5050316;28;20426;-75
2021/10/09 14:23:37;;;;;;;21.38;15.52;;;;;;;;;;5044923;28;20465;-73
2021/10/09 14:26:02;;;;;;;20.05;17.13;;;;;;;;;;5036285;28;20248;-72
2021/10/09 14:28:27;;;;;;;20.42;15.60;;;;;;;;;;5046868;28;20194;-74
2021/10/09 14:30:53;;;;;;;20.35;15.25;;;;;;;;;;5046668;28;20174;-74
2021/10/09 14:33:18;;;;;;;20.42;16.13;;;;;;;;;;5044184;28;20166;-74
2021/10/09 14:35:44;;;;;;;22.80;15.75;;;;;;;;;;5042207;28;20683;-76
2021/10/09 14:38:11;;;;;;;21.83;15.88;;;;;;;;;;5043758;28;20637;-74
2021/10/09 14:40:36;;;;;;;18.40;15.43;;;;;;;;;;5043348;28;20179;-76
2021/10/09 14:43:02;;;;;;;18.77;15.70;;;;;;;;;;5037106;28;20726;-75
2021/10/09 14:45:28;;;;;;;19.50;15.95;;;;;;;;;;5048154;28;20213;-73
2021/10/09 14:48:01;;;;;;;18.63;14.50;;;;;;;;;;5024568;28;20209;-72
2021/10/09 15:19:45;;;;;;;20.27;16.63;;;;;;;;;;5046268;28;20184;-69
2021/10/09 15:22:10;;;;;;;22.33;16.95;;;;;;;;;;5050113;28;20264;-71
2021/10/09 15:24:36;;;;;;;20.27;15.60;;;;;;;;;;5045093;28;20296;-71
2021/10/09 15:27:01;;;;;;;21.20;17.02;;;;;;;;;;5046814;28;20782;-71
2021/10/09 15:29:26;;;;;;;19.13;15.65;;;;;;;;;;5046600;28;20777;-71
2021/10/09 15:31:52;;;;;;;22.13;15.63;;;;;;;;;;5048987;28;20186;-71
2021/10/09 15:34:17;;;;;;;18.70;14.50;;;;;;;;;;5018769;28;20408;-70
2021/10/09 15:36:42;;;;;;;21.55;16.30;;;;;;;;;;5047088;28;20425;-70
2021/10/09 15:39:07;;;;;;;20.48;15.68;;;;;;;;;;5049602;28;20202;-70
2021/10/09 15:41:32;;;;;;;19.25;14.18;;;;;;;;;;5048767;28;20178;-70
2021/10/09 15:43:58;;;;;;;17.80;14.30;;;;;;;;;;5044708;28;20265;-70
2021/10/09 15:46:23;;;;;;;26.50;16.38;;;;;;;;;;5040863;28;20446;-70
2021/10/09 15:48:48;;;;;;;21.50;15.32;;;;;;;;;;5045827;28;20209;-70
2021/10/09 15:51:14;;;;;;;18.63;15.13;;;;;;;;;;5048150;28;20281;-69
2021/10/09 15:53:39;;;;;;;19.97;16.10;;;;;;;;;;5045303;28;20182;-70
2021/10/09 15:56:04;;;;;;;20.35;15.73;;;;;;;;;;5047648;28;20466;-70
2021/10/09 15:58:29;;;;;;;18.75;14.98;;;;;;;;;;5041068;28;20197;-70
2021/10/09 16:00:54;;;;;;;22.67;19.73;;;;;;;;;;5049642;28;20186;-70
2021/10/09 16:03:20;;;;;;;24.53;18.67;;;;;;;;;;5042991;28;20503;-71
2021/10/09 16:05:45;;;;;;;26.58;18.58;;;;;;;;;;5050197;28;20462;-71
2021/10/09 16:08:10;;;;;;;19.30;16.33;;;;;;;;;;5043913;28;20193;-69
2021/10/09 16:10:35;;;;;;;17.30;14.93;;;;;;;;;;5046697;28;20185;-71
2021/10/09 16:13:00;;;;;;;21.95;15.98;;;;;;;;;;5047486;28;20425;-72
2021/10/09 16:15:26;;;;;;;20.17;17.23;;;;;;;;;;5046881;28;20169;-70
2021/10/09 16:17:51;;;;;;;24.25;17.55;;;;;;;;;;5048820;28;20207;-76
2021/10/09 16:20:16;;;;;;;18.77;14.88;;;;;;;;;;5044132;28;20316;-68
2021/10/09 16:22:42;;;;;;;21.67;15.75;;;;;;;;;;5045795;28;20174;-68
2021/10/09 16:25:07;;;;;;;20.52;16.50;;;;;;;;;;5049517;28;20236;-69
2021/10/09 16:27:32;;;;;;;23.77;16.95;;;;;;;;;;5037433;28;20212;-70
2021/10/09 16:29:58;;;;;;;19.48;16.40;;;;;;;;;;5045652;28;20177;-69
2021/10/09 16:32:23;;;;;;;25.63;16.13;;;;;;;;;;5043476;28;20178;-67
2021/10/09 16:34:48;;;;;;;20.73;16.77;;;;;;;;;;5045887;28;20180;-68
2021/10/09 16:37:14;;;;;;;25.27;17.65;;;;;;;;;;5045142;28;20177;-68
2021/10/09 16:39:39;;;;;;;20.70;16.70;;;;;;;;;;5043658;28;20658;-67
2021/10/09 16:42:05;;;;;;;28.85;19.38;;;;;;;;;;5041698;28;20182;-69
2021/10/09 16:44:30;;;;;;;21.73;16.33;;;;;;;;;;5045736;28;20227;-67
2021/10/09 16:46:55;;;;;;;51.13;19.17;;;;;;;;;;5047658;28;20447;-70
2021/10/09 16:49:21;;;;;;;21.08;16.60;;;;;;;;;;5047960;28;20209;-70
2021/10/09 16:51:46;;;;;;;23.52;17.33;;;;;;;;;;5050781;28;20226;-69
2021/10/09 16:54:12;;;;;;;25.17;17.80;;;;;;;;;;5039857;28;20272;-69
2021/10/09 16:56:38;;;;;;;20.42;18.02;;;;;;;;;;5048442;28;20169;-69
2021/10/09 16:59:03;;;;;;;20.85;16.98;;;;;;;;;;5046136;28;20200;-68